Time;durP1;ratioP1;P1;durP2;ratioP2;P2;SDS_P1;SDS_P2;PMS_P1;PMS_P2;Temp;Humidity;BMP_temperature;BMP_pressure;BME280_temperature;BME280_humidity;BME280_pressure;Samples;Min_cycle;Max_cycle;Signal;HPM_P1;HPM_P2
2021/10/15 00:00:07;;;;;;;25.23;17.80;;;13.60;99.90;;;;;;5032701;28;20120;-53
2021/10/15 00:02:33;;;;;;;24.50;16.90;;;13.60;99.90;;;;;;5042706;28;20095;-51
2021/10/15 00:04:58;;;;;;;27.65;17.73;;;13.60;99.90;;;;;;5033408;28;20490;-52
2021/10/15 00:07:24;;;;;;;22.85;17.20;;;13.60;99.90;;;;;;5032814;28;20040;-50
2021/10/15 00:09:49;;;;;;;28.67;18.63;;;13.50;99.90;;;;;;5037280;28;20223;-50
2021/10/15 00:12:15;;;;;;;23.58;17.20;;;13.50;99.90;;;;;;5037692;28;20065;-51
2021/10/15 00:14:40;;;;;;;25.17;17.58;;;13.50;99.90;;;;;;5028259;28;20034;-53
2021/10/15 00:17:06;;;;;;;23.70;17.40;;;13.50;99.90;;;;;;5031340;28;20033;-55
2021/10/15 00:19:32;;;;;;;23.55;17.65;;;13.50;99.90;;;;;;5033219;28;20481;-50
2021/10/15 00:21:57;;;;;;;22.75;16.98;;;13.50;99.90;;;;;;5025213;28;20071;-49
2021/10/15 00:24:23;;;;;;;24.70;17.27;;;13.50;99.90;;;;;;5028570;28;20069;-49
2021/10/15 00:26:49;;;;;;;24.17;17.70;;;13.50;99.90;;;;;;5024060;28;20038;-50
2021/10/15 00:29:14;;;;;;;29.90;19.02;;;13.50;99.90;;;;;;5032822;28;20469;-51
2021/10/15 00:31:40;;;;;;;24.55;17.85;;;13.50;99.90;;;;;;5025373;28;20037;-49
2021/10/15 00:34:05;;;;;;;25.17;18.70;;;13.50;99.90;;;;;;5033159;28;20379;-49
2021/10/15 00:36:31;;;;;;;27.02;18.95;;;13.50;99.90;;;;;;5011733;28;20072;-52
2021/10/15 00:38:56;;;;;;;23.88;18.20;;;13.50;99.90;;;;;;5031835;28;20083;-49
2021/10/15 00:41:22;;;;;;;25.70;18.15;;;13.50;99.90;;;;;;5032467;28;20078;-49
2021/10/15 00:44:09;;;;;;;28.08;18.42;;;13.50;99.90;;;;;;5032137;28;20037;-50
2021/10/15 00:46:36;;;;;;;26.90;18.60;;;13.50;99.90;;;;;;5030557;28;20083;-49
2021/10/15 00:49:06;;;;;;;26.15;18.75;;;13.50;99.90;;;;;;5032959;28;20037;-49
2021/10/15 00:51:33;;;;;;;24.70;18.92;;;13.40;99.90;;;;;;5029102;28;20037;-50
2021/10/15 00:54:00;;;;;;;28.52;18.90;;;13.40;99.90;;;;;;5032425;28;20029;-49
2021/10/15 00:56:28;;;;;;;30.80;18.95;;;13.40;99.90;;;;;;5029530;28;20041;-51
2021/10/15 00:58:55;;;;;;;29.98;20.15;;;13.40;99.90;;;;;;5031894;28;20052;-51
2021/10/15 01:01:21;;;;;;;29.35;19.48;;;13.40;99.90;;;;;;5035353;28;20037;-49
2021/10/15 01:03:47;;;;;;;28.00;18.60;;;13.40;99.90;;;;;;5031999;28;20524;-53
2021/10/15 01:06:12;;;;;;;28.15;20.23;;;13.40;99.90;;;;;;5014486;28;20498;-52
2021/10/15 01:08:44;;;;;;;27.67;20.15;;;13.40;99.90;;;;;;5032159;28;20120;-50
2021/10/15 01:11:10;;;;;;;28.27;20.23;;;13.40;99.90;;;;;;5025893;28;20048;-54
2021/10/15 01:13:36;;;;;;;26.45;19.80;;;13.40;99.90;;;;;;5036265;28;20037;-51
2021/10/15 01:16:04;;;;;;;28.73;20.73;;;13.40;99.90;;;;;;5037637;28;20029;-55
2021/10/15 01:18:29;;;;;;;30.50;20.48;;;13.30;99.90;;;;;;5031519;28;20045;-53
2021/10/15 01:20:55;;;;;;;28.38;19.92;;;13.40;99.90;;;;;;5032599;28;20501;-55
2021/10/15 01:23:20;;;;;;;29.60;19.90;;;13.40;99.90;;;;;;5030876;28;20041;-52
2021/10/15 01:25:46;;;;;;;26.00;20.02;;;13.40;99.90;;;;;;5031532;28;20037;-55
2021/10/15 01:28:12;;;;;;;26.15;18.75;;;13.40;99.90;;;;;;5031049;28;20416;-53
2021/10/15 01:30:37;;;;;;;27.95;18.65;;;13.40;99.90;;;;;;5032801;28;20042;-51
2021/10/15 01:33:03;;;;;;;23.42;18.05;;;13.40;99.90;;;;;;5031225;28;20040;-55
2021/10/15 01:35:28;;;;;;;25.73;18.42;;;13.40;99.90;;;;;;5013227;28;20048;-54
2021/10/15 01:37:54;;;;;;;25.02;17.15;;;13.40;99.90;;;;;;5034126;28;20064;-55
2021/10/15 01:40:19;;;;;;;27.42;18.52;;;13.40;99.90;;;;;;5028232;28;20098;-51
2021/10/15 01:42:54;;;;;;;26.98;17.85;;;13.50;99.90;;;;;;5032640;28;20094;-52
2021/10/15 01:45:21;;;;;;;25.45;17.48;;;13.50;99.90;;;;;;5034853;28;20120;-53
2021/10/15 01:47:46;;;;;;;25.25;17.45;;;13.40;99.90;;;;;;5032128;28;20052;-54
2021/10/15 01:50:12;;;;;;;27.35;17.60;;;13.40;99.90;;;;;;5031062;28;20033;-52
2021/10/15 01:52:39;;;;;;;24.33;17.17;;;13.40;99.90;;;;;;5031155;28;20052;-51
2021/10/15 01:55:06;;;;;;;24.85;16.45;;;13.50;99.90;;;;;;5023070;28;20037;-50
2021/10/15 01:57:32;;;;;;;23.20;17.20;;;13.40;99.90;;;;;;5031097;28;20087;-49
2021/10/15 01:59:57;;;;;;;25.48;17.02;;;13.40;99.90;;;;;;5030611;28;20037;-50
2021/10/15 02:02:23;;;;;;;25.42;16.73;;;13.50;99.90;;;;;;5031540;28;20041;-54
2021/10/15 02:04:48;;;;;;;23.30;16.83;;;13.50;99.90;;;;;;5030653;28;20034;-49
2021/10/15 02:07:14;;;;;;;24.65;17.27;;;13.50;99.90;;;;;;5030399;28;20033;-49
2021/10/15 02:09:39;;;;;;;21.77;15.38;;;13.50;99.90;;;;;;5029966;28;20053;-51
2021/10/15 02:12:06;;;;;;;23.98;15.80;;;13.50;99.90;;;;;;5031134;28;20041;-52
2021/10/15 02:14:32;;;;;;;27.58;16.10;;;13.50;99.90;;;;;;5030164;28;20095;-52
2021/10/15 02:16:57;;;;;;;24.13;16.25;;;13.50;99.90;;;;;;5029650;28;20033;-52
2021/10/15 02:19:26;;;;;;;23.92;16.10;;;13.50;99.90;;;;;;5030846;28;20033;-50
2021/10/15 02:21:52;;;;;;;20.58;15.40;;;13.50;99.90;;;;;;4996471;28;20043;-56
2021/10/15 02:24:18;;;;;;;23.33;15.20;;;13.50;99.90;;;;;;5030638;28;20436;-51
2021/10/15 02:26:44;;;;;;;23.65;15.68;;;13.50;99.90;;;;;;5030273;28;20091;-51
2021/10/15 02:29:10;;;;;;;25.23;15.70;;;13.50;99.90;;;;;;5030836;28;20049;-52
2021/10/15 02:31:35;;;;;;;22.90;15.25;;;13.50;99.90;;;;;;5027693;28;20087;-50
2021/10/15 02:34:01;;;;;;;28.63;15.60;;;13.50;99.90;;;;;;5027393;28;20026;-49
2021/10/15 02:36:26;;;;;;;29.85;15.05;;;13.50;99.90;;;;;;5026403;28;20033;-50
2021/10/15 02:38:52;;;;;;;23.42;15.13;;;13.50;99.90;;;;;;5030454;28;20540;-53
2021/10/15 02:41:18;;;;;;;22.48;15.30;;;13.50;99.90;;;;;;5026993;28;20033;-50
2021/10/15 02:43:44;;;;;;;22.70;14.88;;;13.50;99.90;;;;;;5030601;28;20072;-49
2021/10/15 02:46:14;;;;;;;22.90;15.02;;;13.50;99.90;;;;;;5027786;28;20056;-49
2021/10/15 02:48:40;;;;;;;25.83;15.68;;;13.50;99.90;;;;;;5030515;28;20325;-50
2021/10/15 02:51:06;;;;;;;23.60;15.60;;;13.50;99.90;;;;;;5030318;28;20363;-49
2021/10/15 02:53:31;;;;;;;24.85;16.13;;;13.40;99.90;;;;;;5030619;28;20080;-49
2021/10/15 02:55:57;;;;;;;23.77;14.93;;;13.40;99.90;;;;;;5012507;28;20037;-56
2021/10/15 02:58:22;;;;;;;23.75;15.52;;;13.40;99.90;;;;;;5033172;28;20040;-52
2021/10/15 03:00:50;;;;;;;26.27;15.63;;;13.40;99.90;;;;;;5035017;28;20120;-50
2021/10/15 03:03:16;;;;;;;23.05;15.18;;;13.40;99.90;;;;;;5030150;28;20046;-49
2021/10/15 03:05:42;;;;;;;23.45;14.80;;;13.30;99.90;;;;;;5030031;28;20041;-49
2021/10/15 03:08:08;;;;;;;21.50;14.52;;;13.30;99.90;;;;;;5030126;28;20095;-49
2021/10/15 03:10:33;;;;;;;27.63;14.60;;;13.30;99.90;;;;;;5030758;28;20038;-50
2021/10/15 03:12:59;;;;;;;24.17;15.38;;;13.40;99.90;;;;;;5039221;28;20040;-52
2021/10/15 03:15:25;;;;;;;25.33;14.48;;;13.30;99.90;;;;;;5035521;28;20486;-49
2021/10/15 03:17:50;;;;;;;21.40;13.27;;;13.30;99.90;;;;;;5030782;28;20060;-52
2021/10/15 03:20:16;;;;;;;21.77;13.73;;;13.30;99.90;;;;;;5036046;28;20144;-49
2021/10/15 03:22:41;;;;;;;26.00;14.55;;;13.40;99.90;;;;;;5029977;28;20045;-49
2021/10/15 03:25:07;;;;;;;23.08;13.65;;;13.40;99.90;;;;;;5011730;28;20379;-50
2021/10/15 03:27:33;;;;;;;22.05;14.02;;;13.40;99.90;;;;;;5031728;28;20509;-49
2021/10/15 03:29:58;;;;;;;19.25;12.70;;;13.40;99.90;;;;;;5025073;28;20127;-49
2021/10/15 03:32:24;;;;;;;23.88;13.75;;;13.40;99.90;;;;;;5030248;28;20041;-49
2021/10/15 03:34:50;;;;;;;19.77;12.88;;;13.40;99.90;;;;;;5028112;28;20041;-55
2021/10/15 03:37:15;;;;;;;19.48;12.52;;;13.40;99.90;;;;;;5026053;28;20037;-50
2021/10/15 03:39:41;;;;;;;20.25;12.90;;;13.40;99.90;;;;;;5033587;28;20051;-49
2021/10/15 03:42:06;;;;;;;24.33;13.13;;;13.40;99.90;;;;;;5033127;28;20116;-51
2021/10/15 03:44:32;;;;;;;24.77;12.70;;;13.40;99.90;;;;;;5040571;28;20091;-53
2021/10/15 03:46:58;;;;;;;23.38;12.77;;;13.40;99.90;;;;;;5029035;28;20181;-50
2021/10/15 03:49:24;;;;;;;22.90;12.45;;;13.40;99.90;;;;;;5038656;28;20037;-52
2021/10/15 03:51:50;;;;;;;19.27;11.70;;;13.40;99.90;;;;;;5036514;28;20033;-53
2021/10/15 03:54:15;;;;;;;24.35;12.27;;;13.40;99.90;;;;;;5036491;28;20041;-49
2021/10/15 03:56:41;;;;;;;22.98;12.27;;;13.40;99.90;;;;;;5041715;28;20033;-53
2021/10/15 03:59:06;;;;;;;20.92;13.27;;;13.40;99.90;;;;;;5036463;28;20041;-51
2021/10/15 04:01:32;;;;;;;20.17;12.48;;;13.40;99.90;;;;;;5036764;28;20560;-50
2021/10/15 04:03:57;;;;;;;18.15;11.45;;;13.40;99.90;;;;;;5033406;28;20040;-50
2021/10/15 04:06:23;;;;;;;20.48;12.63;;;13.40;99.90;;;;;;5032423;28;20519;-49
2021/10/15 04:08:48;;;;;;;23.08;12.60;;;13.40;99.90;;;;;;5030760;28;20067;-53
2021/10/15 04:11:15;;;;;;;19.83;12.45;;;13.40;99.90;;;;;;5032916;28;20049;-49
2021/10/15 04:13:41;;;;;;;24.27;12.65;;;13.40;99.90;;;;;;5032886;28;20047;-50
2021/10/15 04:16:07;;;;;;;24.08;12.55;;;13.40;99.90;;;;;;5032077;28;20557;-53
2021/10/15 04:18:32;;;;;;;23.65;12.52;;;13.40;99.90;;;;;;5032241;28;20102;-52
2021/10/15 04:20:58;;;;;;;19.00;11.30;;;13.40;99.90;;;;;;5031495;28;20087;-53
2021/10/15 04:23:24;;;;;;;25.20;12.63;;;13.50;99.90;;;;;;5014671;28;20037;-51
2021/10/15 04:25:49;;;;;;;25.15;12.45;;;13.50;99.90;;;;;;5032245;28;20037;-52
2021/10/15 04:28:16;;;;;;;23.42;12.00;;;13.50;99.90;;;;;;5026674;28;20064;-51
2021/10/15 04:30:42;;;;;;;29.02;12.88;;;13.50;99.90;;;;;;5024193;28;20439;-50
2021/10/15 04:33:08;;;;;;;21.13;11.45;;;13.50;99.90;;;;;;5035357;28;20087;-49
2021/10/15 04:35:34;;;;;;;22.30;11.98;;;13.50;99.90;;;;;;5023239;28;20546;-55
2021/10/15 04:37:59;;;;;;;21.48;11.20;;;13.50;99.90;;;;;;5031072;28;20044;-52
2021/10/15 04:40:25;;;;;;;24.73;11.93;;;13.50;99.90;;;;;;5023822;28;20029;-49
2021/10/15 04:42:50;;;;;;;19.45;11.15;;;13.50;99.90;;;;;;5035008;28;20065;-51
2021/10/15 04:45:16;;;;;;;21.73;12.45;;;13.50;99.90;;;;;;5014944;28;20034;-51
2021/10/15 04:47:42;;;;;;;21.65;11.85;;;13.50;99.90;;;;;;5014426;28;20037;-52
2021/10/15 04:50:08;;;;;;;25.95;12.20;;;13.50;99.90;;;;;;5036738;28;20049;-52
2021/10/15 04:52:34;;;;;;;23.38;12.43;;;13.50;99.90;;;;;;5035680;28;20025;-51
2021/10/15 04:54:59;;;;;;;21.13;11.07;;;13.50;99.90;;;;;;5008349;28;20038;-52
2021/10/15 04:57:25;;;;;;;20.52;11.90;;;13.50;99.90;;;;;;5032069;28;20065;-49
2021/10/15 04:59:51;;;;;;;20.88;11.82;;;13.50;99.90;;;;;;5032723;28;20084;-52
2021/10/15 05:02:16;;;;;;;24.85;11.48;;;13.50;99.90;;;;;;5031830;28;20037;-50
2021/10/15 05:04:43;;;;;;;22.25;12.35;;;13.60;99.90;;;;;;5030995;28;20482;-51
2021/10/15 05:07:08;;;;;;;24.02;11.85;;;13.50;99.90;;;;;;5032540;28;20045;-53
2021/10/15 05:09:35;;;;;;;26.65;11.25;;;13.60;99.90;;;;;;5036275;28;20061;-56
2021/10/15 05:12:04;;;;;;;25.50;12.82;;;13.60;99.90;;;;;;5032041;28;20045;-53
2021/10/15 05:14:34;;;;;;;19.80;11.93;;;13.50;99.90;;;;;;5013894;28;20041;-53
2021/10/15 05:17:01;;;;;;;22.42;11.75;;;13.50;99.90;;;;;;5030935;28;20038;-52
2021/10/15 05:19:28;;;;;;;18.88;11.13;;;13.50;99.90;;;;;;5031785;28;20048;-49
2021/10/15 05:21:54;;;;;;;21.42;12.02;;;13.50;99.90;;;;;;5031248;28;20045;-53
2021/10/15 05:24:19;;;;;;;27.65;13.07;;;13.50;99.90;;;;;;5025694;28;20034;-49
2021/10/15 05:26:45;;;;;;;22.73;12.27;;;13.50;99.90;;;;;;5030217;28;20107;-51
2021/10/15 05:29:11;;;;;;;22.77;12.95;;;13.40;99.90;;;;;;5025836;28;20375;-53
2021/10/15 05:31:36;;;;;;;27.60;13.80;;;13.40;99.90;;;;;;5005869;28;20546;-50
2021/10/15 05:34:02;;;;;;;28.05;12.57;;;13.30;99.90;;;;;;5037771;28;20691;-52
2021/10/15 05:36:28;;;;;;;23.20;12.98;;;13.30;99.90;;;;;;5029253;28;20029;-50
2021/10/15 05:38:53;;;;;;;26.48;13.23;;;13.30;99.90;;;;;;5034551;28;20140;-55
2021/10/15 05:41:19;;;;;;;27.25;11.98;;;13.20;99.90;;;;;;5024916;28;20481;-52
2021/10/15 05:43:44;;;;;;;23.95;11.02;;;13.20;99.90;;;;;;5029379;28;20043;-52
2021/10/15 05:46:10;;;;;;;15.88;9.77;;;13.30;99.90;;;;;;5030663;28;20059;-51
2021/10/15 05:48:36;;;;;;;10.45;4.85;;;13.30;99.90;;;;;;5029451;28;20486;-52
2021/10/15 05:51:02;;;;;;;6.22;2.40;;;13.20;99.90;;;;;;5030868;28;20029;-54
2021/10/15 05:53:28;;;;;;;4.95;1.70;;;13.10;99.90;;;;;;5031185;28;20033;-52
2021/10/15 05:56:23;;;;;;;3.97;1.30;;;12.90;99.90;;;;;;5031415;28;20051;-53
2021/10/15 05:58:49;;;;;;;1.63;0.75;;;12.70;99.90;;;;;;5031224;28;20042;-51
2021/10/15 06:01:15;;;;;;;2.13;1.00;;;12.60;99.90;;;;;;5035314;28;20041;-54
2021/10/15 06:03:44;;;;;;;2.58;1.02;;;12.50;99.90;;;;;;5024045;28;20070;-55
2021/10/15 06:06:58;;;;;;;1.70;0.60;;;12.30;99.90;;;;;;5029144;28;20441;-54
2021/10/15 06:13:36;;;;;;;2.35;0.60;;;12.30;99.90;;;;;;5023086;28;20417;-51
2021/10/15 06:14:55;;;;;;;2.33;0.50;;;12.00;99.90;;;;;;4997257;28;20084;-51
2021/10/15 06:17:21;;;;;;;2.72;0.60;;;11.80;99.90;;;;;;5033527;28;20045;-54
2021/10/15 06:22:12;;;;;;;4.72;0.75;;;11.60;99.90;;;;;;5030771;28;20140;-53
2021/10/15 06:24:38;;;;;;;2.75;0.70;;;11.60;99.90;;;;;;5028521;28;20041;-55
2021/10/15 06:27:04;;;;;;;6.38;0.80;;;11.50;99.90;;;;;;5027003;28;20029;-54
2021/10/15 06:29:29;;;;;;;4.47;0.88;;;11.50;99.90;;;;;;5023926;28;20046;-54
2021/10/15 06:31:55;;;;;;;7.75;1.15;;;11.50;99.90;;;;;;5026342;28;20049;-54
2021/10/15 06:34:21;;;;;;;5.63;1.30;;;11.40;99.90;;;;;;5028029;28;20048;-54
2021/10/15 06:36:46;;;;;;;5.88;0.98;;;11.30;99.90;;;;;;5025175;28;20065;-54
2021/10/15 06:39:12;;;;;;;7.45;1.10;;;11.30;99.90;;;;;;5029188;28;20041;-53
2021/10/15 06:41:38;;;;;;;5.40;1.20;;;11.30;99.90;;;;;;5026622;28;20049;-52
2021/10/15 06:44:04;;;;;;;4.32;0.80;;;11.30;99.90;;;;;;5010061;28;20048;-54
2021/10/15 06:46:29;;;;;;;6.40;1.10;;;11.30;99.90;;;;;;5026479;28;20076;-54
2021/10/15 06:48:55;;;;;;;5.78;1.15;;;11.30;99.90;;;;;;5030155;28;20096;-54
2021/10/15 06:51:21;;;;;;;5.10;0.93;;;11.20;99.90;;;;;;5030290;28;20030;-53
2021/10/15 06:53:46;;;;;;;5.88;0.93;;;11.20;99.90;;;;;;5030416;28;20053;-55
2021/10/15 06:56:12;;;;;;;5.95;1.20;;;11.20;99.90;;;;;;5029209;28;20124;-55
2021/10/15 06:58:37;;;;;;;7.32;1.05;;;11.20;99.90;;;;;;5029815;28;20049;-55
2021/10/15 07:01:04;;;;;;;7.50;1.40;;;11.20;99.90;;;;;;5031087;28;20060;-54
2021/10/15 07:03:29;;;;;;;7.03;1.40;;;11.20;99.90;;;;;;5030538;28;20045;-54
2021/10/15 07:05:55;;;;;;;9.55;1.33;;;11.30;99.90;;;;;;5033218;28;20413;-53
2021/10/15 07:08:21;;;;;;;8.00;1.13;;;11.30;99.90;;;;;;5033802;28;20509;-55
2021/10/15 07:10:46;;;;;;;9.68;1.40;;;11.20;99.90;;;;;;5033462;28;20449;-53
2021/10/15 07:13:13;;;;;;;5.07;1.17;;;11.20;99.90;;;;;;5032472;28;20034;-55
2021/10/15 07:15:39;;;;;;;9.95;1.30;;;11.20;99.90;;;;;;5030584;28;20068;-54
2021/10/15 07:18:06;;;;;;;5.03;1.00;;;11.20;99.90;;;;;;5033304;28;20489;-54
2021/10/15 07:20:31;;;;;;;4.70;1.00;;;11.30;99.90;;;;;;5032934;28;20056;-54
2021/10/15 07:22:57;;;;;;;5.57;1.17;;;11.30;99.90;;;;;;5032569;28;20393;-54
2021/10/15 07:25:23;;;;;;;8.32;1.65;;;11.30;99.90;;;;;;5031763;28;20130;-52
2021/10/15 07:27:49;;;;;;;10.25;2.00;;;11.30;99.90;;;;;;5029099;28;20038;-54
2021/10/15 07:30:16;;;;;;;8.52;1.45;;;11.30;99.90;;;;;;5030927;28;20041;-55
2021/10/15 07:32:41;;;;;;;9.55;1.40;;;11.30;99.90;;;;;;5032986;28;20068;-51
2021/10/15 07:35:07;;;;;;;7.28;1.50;;;11.30;99.90;;;;;;5030839;28;20072;-51
2021/10/15 07:37:33;;;;;;;8.88;1.50;;;11.30;99.90;;;;;;5031670;28;20087;-54
2021/10/15 07:39:59;;;;;;;11.27;1.85;;;11.30;99.90;;;;;;4995221;28;20529;-54
2021/10/15 07:42:25;;;;;;;8.88;1.73;;;11.30;99.90;;;;;;5030338;28;20041;-55
2021/10/15 07:44:50;;;;;;;10.80;1.90;;;11.30;99.90;;;;;;5032450;28;20179;-54
2021/10/15 07:47:16;;;;;;;9.63;1.45;;;11.30;99.90;;;;;;5033559;28;20120;-54
2021/10/15 07:49:41;;;;;;;9.48;1.67;;;11.30;99.90;;;;;;5033393;28;20486;-55
2021/10/15 07:52:07;;;;;;;11.75;2.05;;;11.30;99.90;;;;;;5033373;28;20034;-54
2021/10/15 07:54:33;;;;;;;8.93;2.53;;;11.30;99.90;;;;;;5035709;28;20056;-53
2021/10/15 07:56:59;;;;;;;10.73;2.00;;;11.30;99.90;;;;;;5014768;28;20033;-54
2021/10/15 07:59:25;;;;;;;10.30;1.80;;;11.30;99.90;;;;;;5033159;28;20088;-52
2021/10/15 08:01:51;;;;;;;5.93;1.25;;;11.30;99.90;;;;;;5033867;28;20132;-54
2021/10/15 08:04:19;;;;;;;14.00;1.60;;;11.30;99.90;;;;;;5035975;28;20029;-55
2021/10/15 08:06:45;;;;;;;10.15;1.60;;;11.40;99.90;;;;;;5036151;28;20048;-52
2021/10/15 08:09:11;;;;;;;8.20;1.38;;;11.40;99.90;;;;;;5032385;28;20049;-53
2021/10/15 08:11:36;;;;;;;10.20;2.00;;;11.40;99.90;;;;;;5032737;28;20096;-52
2021/10/15 08:14:02;;;;;;;10.57;1.55;;;11.40;99.90;;;;;;5033443;28;20029;-53
2021/10/15 08:16:28;;;;;;;9.57;1.70;;;11.30;99.90;;;;;;5032185;28;20035;-49
2021/10/15 08:18:53;;;;;;;12.45;2.38;;;11.40;99.90;;;;;;5039252;28;20045;-51
2021/10/15 08:21:19;;;;;;;7.35;2.60;;;11.40;99.90;;;;;;5034397;28;20034;-50
2021/10/15 08:23:45;;;;;;;11.23;2.67;;;11.50;99.90;;;;;;5026944;28;20449;-49
2021/10/15 08:26:11;;;;;;;11.73;2.67;;;11.50;99.90;;;;;;5032068;28;20041;-50
2021/10/15 08:28:38;;;;;;;10.23;2.30;;;11.60;99.90;;;;;;5029459;28;20077;-49
2021/10/15 08:31:04;;;;;;;10.30;2.70;;;11.70;99.90;;;;;;5032938;28;20041;-49
2021/10/15 08:33:29;;;;;;;11.70;2.20;;;11.80;99.90;;;;;;5032927;28;20378;-49
2021/10/15 08:35:55;;;;;;;9.68;2.22;;;11.90;99.90;;;;;;5029190;28;20121;-55
2021/10/15 08:38:21;;;;;;;10.35;2.45;;;12.00;99.90;;;;;;5027721;28;20037;-50
2021/10/15 08:40:47;;;;;;;12.73;2.40;;;12.10;99.90;;;;;;5026165;28;20044;-49
2021/10/15 08:43:13;;;;;;;8.32;1.75;;;12.20;99.90;;;;;;5033296;28;20037;-50
2021/10/15 08:45:40;;;;;;;12.57;2.75;;;12.40;99.90;;;;;;5026740;28;20040;-53
2021/10/15 08:48:05;;;;;;;7.78;2.03;;;12.40;99.90;;;;;;5027037;28;20034;-50
2021/10/15 08:50:32;;;;;;;10.82;1.67;;;12.40;99.90;;;;;;5026432;28;20034;-50
2021/10/15 08:52:58;;;;;;;8.18;1.67;;;12.50;99.90;;;;;;5026392;28;20045;-51
2021/10/15 08:55:24;;;;;;;11.88;1.85;;;12.50;99.90;;;;;;5034826;28;20040;-51
2021/10/15 08:57:53;;;;;;;14.40;2.38;;;12.60;99.90;;;;;;5034146;28;20037;-53
2021/10/15 09:00:27;;;;;;;8.65;1.77;;;12.60;99.90;;;;;;5035557;28;20045;-51
2021/10/15 09:03:18;;;;;;;8.13;1.88;;;12.70;99.90;;;;;;5030657;28;20044;-51
2021/10/15 09:05:54;;;;;;;7.28;1.85;;;12.70;99.90;;;;;;5032397;28;20057;-51
2021/10/15 09:08:21;;;;;;;9.60;1.63;;;12.70;99.90;;;;;;5035244;28;20203;-51
2021/10/15 09:10:46;;;;;;;8.93;1.90;;;12.80;99.90;;;;;;5033659;28;20481;-51
2021/10/15 09:13:18;;;;;;;10.70;1.67;;;12.80;99.90;;;;;;5037966;28;20057;-54
2021/10/15 09:15:48;;;;;;;11.93;1.80;;;12.80;99.90;;;;;;5032727;28;20048;-51
2021/10/15 09:18:16;;;;;;;16.38;2.28;;;12.80;99.90;;;;;;5030961;28;20037;-51
2021/10/15 09:20:43;;;;;;;8.70;1.65;;;12.80;99.90;;;;;;5031965;28;20048;-51
2021/10/15 09:23:13;;;;;;;9.18;1.60;;;12.80;99.90;;;;;;5036970;28;20052;-52
2021/10/15 09:25:44;;;;;;;9.20;1.63;;;12.90;99.90;;;;;;5027920;28;20034;-51
2021/10/15 09:28:18;;;;;;;10.75;1.63;;;12.90;99.90;;;;;;5029161;28;20038;-52
2021/10/15 09:30:46;;;;;;;10.10;1.70;;;12.90;99.90;;;;;;5029444;28;20033;-54
2021/10/15 09:33:12;;;;;;;9.55;1.73;;;12.90;99.90;;;;;;5031384;28;20042;-53
2021/10/15 09:35:38;;;;;;;7.82;1.80;;;13.00;99.90;;;;;;5024221;28;20026;-54
2021/10/15 09:38:07;;;;;;;12.25;1.80;;;13.00;99.90;;;;;;5029935;28;20052;-52
2021/10/15 09:40:48;;;;;;;10.98;3.15;;;13.10;99.90;;;;;;5032384;28;20033;-52
2021/10/15 09:43:15;;;;;;;8.15;1.88;;;13.10;99.90;;;;;;5024804;28;20041;-53
2021/10/15 09:45:46;;;;;;;9.93;2.05;;;13.10;99.90;;;;;;5023178;28;20472;-51
2021/10/15 09:48:24;;;;;;;10.73;1.63;;;13.20;99.90;;;;;;5024193;28;20068;-53
2021/10/15 09:51:11;;;;;;;11.63;2.13;;;13.20;99.90;;;;;;5031846;28;20072;-53
2021/10/15 09:53:38;;;;;;;9.77;2.03;;;13.20;99.80;;;;;;5028261;28;20128;-51
2021/10/15 09:56:03;;;;;;;11.35;2.58;;;13.20;99.60;;;;;;5031439;28;20059;-54
2021/10/15 10:01:04;;;;;;;12.52;1.95;;;13.20;99.80;;;;;;5829708;22;20442;-53
2021/10/15 10:03:30;;;;;;;13.63;2.33;;;13.30;99.70;;;;;;5015815;28;20038;-55
2021/10/15 10:05:56;;;;;;;14.38;2.80;;;13.20;98.30;;;;;;5023400;28;20034;-56
2021/10/15 10:08:21;;;;;;;14.48;2.60;;;13.20;97.60;;;;;;5021780;28;20041;-52
2021/10/15 10:10:47;;;;;;;18.40;2.65;;;13.20;97.10;;;;;;5021229;28;20038;-53
2021/10/15 10:13:14;;;;;;;15.00;2.90;;;13.00;97.10;;;;;;5020275;28;20120;-55
2021/10/15 10:15:43;;;;;;;13.25;2.72;;;12.90;96.10;;;;;;5019194;28;20508;-52
2021/10/15 10:18:15;;;;;;;13.25;2.50;;;12.80;96.40;;;;;;5023875;28;20441;-53
2021/10/15 10:20:44;;;;;;;;;;;12.60;96.00;;;;;;5027307;28;20037;-54
2021/10/15 10:23:26;;;;;;;13.57;2.25;;;12.60;96.30;;;;;;5024249;28;19917;-52
2021/10/15 10:26:01;;;;;;;18.98;2.85;;;12.60;97.20;;;;;;5019828;28;20051;-53
2021/10/15 10:28:27;;;;;;;13.75;2.63;;;12.80;96.00;;;;;;5026192;28;20112;-52
2021/10/15 10:31:02;;;;;;;16.13;2.50;;;12.80;96.50;;;;;;5027939;28;20033;-55
2021/10/15 10:33:29;;;;;;;15.02;3.20;;;12.90;96.00;;;;;;5021050;28;20037;-52
2021/10/15 10:36:10;;;;;;;21.33;3.60;;;13.00;95.30;;;;;;5020905;28;20034;-52
2021/10/15 10:38:36;;;;;;;18.15;3.10;;;13.10;95.10;;;;;;5029107;28;20481;-53
2021/10/15 10:41:01;;;;;;;16.45;2.95;;;13.20;94.60;;;;;;5028600;28;20045;-54
2021/10/15 10:43:32;;;;;;;19.75;3.85;;;13.30;92.80;;;;;;5022626;28;20092;-51
2021/10/15 10:46:10;;;;;;;12.63;2.92;;;13.30;92.00;;;;;;5027872;28;20433;-52
2021/10/15 10:48:50;;;;;;;18.77;3.38;;;13.40;89.20;;;;;;5023272;28;20038;-51
2021/10/15 10:51:22;;;;;;;17.27;3.25;;;13.40;88.80;;;;;;5019835;28;20064;-55
2021/10/15 10:53:57;;;;;;;;;;;13.50;88.40;;;;;;5022556;28;20044;-53
2021/10/15 10:56:44;;;;;;;20.45;3.05;;;13.50;85.80;;;;;;5022530;28;20301;-52
2021/10/15 10:59:16;;;;;;;17.98;2.70;;;13.50;86.80;;;;;;5026518;28;20034;-52
2021/10/15 11:01:47;;;;;;;13.80;2.75;;;13.30;89.80;;;;;;5031663;28;20049;-57
2021/10/15 11:04:55;;;;;;;12.07;2.58;;;13.20;89.40;;;;;;5032311;28;20037;-50
2021/10/15 11:07:20;;;;;;;15.35;2.80;;;13.00;88.10;;;;;;5024081;28;20140;-51
2021/10/15 11:09:51;;;;;;;16.02;2.50;;;12.80;90.50;;;;;;5037097;28;20172;-50
2021/10/15 11:12:25;;;;;;;15.07;2.72;;;12.80;91.10;;;;;;5030896;28;20045;-52
2021/10/15 11:15:04;;;;;;;15.90;3.08;;;12.80;91.30;;;;;;5035570;28;20037;-51
2021/10/15 11:17:41;;;;;;;12.65;2.95;;;12.90;91.70;;;;;;5033283;28;20448;-50
2021/10/15 11:20:20;;;;;;;18.85;4.18;;;12.90;92.00;;;;;;5032775;28;20041;-54
2021/10/15 11:22:50;;;;;;;14.43;2.55;;;13.00;92.20;;;;;;5032456;28;20076;-50
2021/10/15 11:25:17;;;;;;;11.40;2.28;;;13.20;91.70;;;;;;5030765;28;20093;-50
2021/10/15 11:27:47;;;;;;;10.50;2.33;;;13.20;89.60;;;;;;5029180;28;20537;-52
2021/10/15 11:30:13;;;;;;;18.52;2.83;;;13.30;86.40;;;;;;5035397;28;20064;-49
2021/10/15 11:32:42;;;;;;;14.55;3.00;;;13.40;85.00;;;;;;5035690;28;20048;-52
2021/10/15 11:35:16;;;;;;;22.80;4.03;;;13.50;84.60;;;;;;5027952;28;20517;-52
2021/10/15 11:37:56;;;;;;;17.63;3.53;;;13.50;82.90;;;;;;5022056;28;20347;-52
2021/10/15 11:40:26;;;;;;;12.88;2.60;;;13.50;84.60;;;;;;5028416;28;20046;-52
2021/10/15 11:42:54;;;;;;;10.60;2.40;;;13.60;85.20;;;;;;5026100;28;20563;-50
2021/10/15 11:45:25;;;;;;;13.55;2.47;;;13.60;85.20;;;;;;5024476;28;20120;-53
2021/10/15 11:48:10;;;;;;;13.98;2.40;;;13.70;85.30;;;;;;5017485;28;20050;-50
2021/10/15 11:50:37;;;;;;;14.15;2.45;;;13.70;83.60;;;;;;5022239;28;20053;-54
2021/10/15 11:53:05;;;;;;;16.52;2.58;;;13.80;82.80;;;;;;5021098;28;20034;-52
2021/10/15 11:55:38;;;;;;;16.58;3.50;;;13.80;83.00;;;;;;5019311;28;20045;-51
2021/10/15 11:58:24;;;;;;;19.00;2.55;;;13.80;81.80;;;;;;5025918;28;20065;-54
2021/10/15 12:01:02;;;;;;;15.30;3.40;;;13.80;79.50;;;;;;5031248;28;20444;-52
2021/10/15 12:04:08;;;;;;;11.00;2.33;;;13.80;79.80;;;;;;5026085;28;20036;-54
2021/10/15 12:07:14;;;;;;;13.30;2.70;;;13.80;81.20;;;;;;4982236;22;20119;-50
2021/10/15 12:09:40;;;;;;;18.17;2.30;;;13.80;74.10;;;;;;5015539;28;20128;-52
2021/10/15 12:12:07;;;;;;;13.75;2.28;;;13.80;74.00;;;;;;5032475;28;20120;-54
2021/10/15 12:14:35;;;;;;;12.05;2.42;;;13.80;76.00;;;;;;5016881;28;20151;-51
2021/10/15 12:17:10;;;;;;;13.05;3.08;;;13.80;74.50;;;;;;5025598;28;20521;-51
2021/10/15 12:19:49;;;;;;;11.45;2.45;;;13.70;76.40;;;;;;5018854;28;20048;-51
2021/10/15 12:34:08;;;;;;;16.80;2.83;;;13.80;68.10;;;;;;5022273;28;20037;-51
2021/10/15 12:36:36;;;;;;;14.90;2.47;;;13.70;70.90;;;;;;5027277;28;20093;-49
2021/10/15 12:39:22;;;;;;;13.00;2.08;;;13.60;73.30;;;;;;4996881;28;20057;-49
2021/10/15 12:41:50;;;;;;;16.23;2.67;;;13.60;74.80;;;;;;5026463;28;20052;-48
2021/10/15 12:44:26;;;;;;;14.15;2.60;;;13.50;74.90;;;;;;5024773;28;20068;-53
2021/10/15 12:47:00;;;;;;;16.17;3.08;;;13.50;76.90;;;;;;5020729;28;20042;-49
2021/10/15 12:49:27;;;;;;;12.55;2.33;;;13.60;77.30;;;;;;5027404;28;20494;-50
2021/10/15 12:51:53;;;;;;;13.95;2.13;;;13.60;75.20;;;;;;5025495;28;20037;-51
2021/10/15 12:54:43;;;;;;;11.65;2.67;;;13.70;73.80;;;;;;5029033;28;20176;-53
2021/10/15 12:57:16;;;;;;;11.95;2.28;;;13.70;71.40;;;;;;5027561;28;20033;-49
2021/10/15 13:00:01;;;;;;;14.15;2.88;;;13.70;72.30;;;;;;5025561;28;20117;-51